Time;durP1;ratioP1;P1;durP2;ratioP2;P2;SDS_P1;SDS_P2;PMS_P1;PMS_P2;Temp;Humidity;BMP_temperature;BMP_pressure;BME280_temperature;BME280_humidity;BME280_pressure;Samples;Min_cycle;Max_cycle;Signal;HPM_P1;HPM_P2
2021/08/24 00:01:17;;;;;;;;;;;;;;;15.29;95.69;97983.53;1724536;82;21066;-75
2021/08/24 00:03:43;;;;;;;;;;;;;;;15.27;96.98;97985.77;1724620;82;20466;-75
2021/08/24 00:06:09;;;;;;;;;;;;;;;15.34;96.07;97978.52;1724051;83;20204;-79
2021/08/24 00:08:35;;;;;;;;;;;;;;;15.30;95.14;97975.62;1724143;83;20152;-75
2021/08/24 00:11:01;;;;;;;;;;;;;;;15.28;95.06;97981.12;1724349;83;20145;-75
2021/08/24 00:13:27;;;;;;;;;;;;;;;15.22;97.11;97975.80;1724371;82;21161;-75
2021/08/24 00:15:53;;;;;;;;;;;;;;;15.24;97.34;97979.58;1724581;82;20180;-75
2021/08/24 00:18:19;;;;;;;;;;;;;;;15.26;96.66;97975.98;1724388;82;20145;-75
2021/08/24 00:20:46;;;;;;;;;;;;;;;15.28;96.08;97974.30;1724677;82;20178;-75
2021/08/24 00:23:13;;;;;;;;;;;;;;;15.27;95.57;97974.05;1724302;83;20553;-75
2021/08/24 00:25:39;;;;;;;;;;;;;;;15.24;96.14;97976.85;1724097;83;20928;-75
2021/08/24 00:28:05;;;;;;;;;;;;;;;15.25;97.60;97978.46;1724421;83;20158;-75
2021/08/24 00:30:31;;;;;;;;;;;;;;;15.27;97.35;97972.69;1723852;83;20145;-75
2021/08/24 00:32:57;;;;;;;;;;;;;;;15.31;96.97;97979.16;1724335;82;20174;-75
2021/08/24 00:35:22;;;;;;;;;;;;;;;15.25;98.11;97977.09;1724697;82;20167;-79
2021/08/24 00:37:48;;;;;;;;;;;;;;;15.22;97.89;97973.08;1724510;82;21027;-79
2021/08/24 00:40:14;;;;;;;;;;;;;;;15.26;97.05;97977.34;1724678;82;20218;-75
2021/08/24 00:42:40;;;;;;;;;;;;;;;15.25;96.66;97979.83;1724005;83;20655;-79
2021/08/24 00:45:11;;;;;;;;;;;;;;;15.23;96.56;97979.34;1724262;82;20191;-74
2021/08/24 00:47:39;;;;;;;;;;;;;;;15.21;96.46;97972.00;1724414;83;20157;-79
2021/08/24 00:50:21;;;;;;;;;;;;;;;15.20;97.22;97976.65;1728216;82;21103;-74
2021/08/24 00:52:47;;;;;;;;;;;;;;;15.22;96.29;97975.00;1716789;83;20145;-79
2021/08/24 00:55:14;;;;;;;;;;;;;;;15.24;96.14;97974.92;1724651;82;20199;-75
2021/08/24 00:57:39;;;;;;;;;;;;;;;15.26;96.89;97976.53;1724432;83;20427;-75
2021/08/24 01:00:06;;;;;;;;;;;;;;;15.30;96.89;97972.08;1724235;82;20190;-79
2021/08/24 01:02:32;;;;;;;;;;;;;;;15.34;97.15;97969.77;1724159;83;21158;-75
2021/08/24 01:04:57;;;;;;;;;;;;;;;15.40;97.47;97966.36;1724354;82;20257;-74
2021/08/24 01:07:43;;;;;;;;;;;;;;;15.41;97.39;97968.77;1724865;82;20257;-75
2021/08/24 01:10:13;;;;;;;;;;;;;;;15.41;96.01;97971.50;1724310;82;20137;-77
2021/08/24 01:12:48;;;;;;;;;;;;;;;15.37;95.35;97975.95;1724933;82;20168;-78
2021/08/24 01:15:29;;;;;;;;;;;;;;;15.34;95.72;97975.79;1724066;83;21062;-79
2021/08/24 01:18:11;;;;;;;;;;;;;;;15.33;95.83;97974.98;1725178;82;20136;-75
2021/08/24 01:20:56;;;;;;;;;;;;;;;15.34;96.83;97979.88;1724819;82;20147;-74
2021/08/24 01:23:42;;;;;;;;;;;;;;;15.35;96.83;97978.77;1724450;82;20144;-79
2021/08/24 01:26:17;;;;;;;;;;;;;;;15.37;96.67;97968.33;1724637;82;20156;-78
2021/08/24 01:29:06;;;;;;;;;;;;;;;15.39;96.10;97970.21;1724461;82;21102;-74
2021/08/24 01:31:41;;;;;;;;;;;;;;;15.41;95.57;97967.41;1724588;82;20136;-75
2021/08/24 01:34:33;;;;;;;;;;;;;;;15.40;95.63;97964.44;1724174;82;20423;-75
2021/08/24 01:37:12;;;;;;;;;;;;;;;15.46;95.65;97961.80;1724528;82;20808;-78
2021/08/24 01:39:49;;;;;;;;;;;;;;;15.58;95.57;97965.34;1724110;83;20125;-75
2021/08/24 01:42:22;;;;;;;;;;;;;;;15.60;95.10;97963.65;1724836;82;21032;-75
2021/08/24 01:44:54;;;;;;;;;;;;;;;15.59;94.50;97970.23;1723675;83;20423;-75
2021/08/24 01:47:36;;;;;;;;;;;;;;;15.56;94.29;97967.58;1724373;82;20136;-75
2021/08/24 01:50:14;;;;;;;;;;;;;;;15.48;96.12;97967.77;1723988;83;20427;-79
2021/08/24 01:52:43;;;;;;;;;;;;;;;15.49;96.02;97971.31;1724355;83;20133;-74
2021/08/24 01:55:14;;;;;;;;;;;;;;;15.52;96.49;97970.67;1724214;82;21144;-79
2021/08/24 01:57:49;;;;;;;;;;;;;;;15.51;96.37;97977.26;1724213;83;20408;-75
2021/08/24 02:00:15;;;;;;;;;;;;;;;15.48;96.20;97971.88;1723714;83;20144;-75
2021/08/24 02:02:47;;;;;;;;;;;;;;;15.49;96.37;97978.94;1724097;82;20168;-75
2021/08/24 02:05:25;;;;;;;;;;;;;;;15.48;96.98;97969.14;1724471;82;20444;-79
2021/08/24 02:07:53;;;;;;;;;;;;;;;15.55;96.39;97966.50;1724411;83;21015;-75
2021/08/24 02:10:21;;;;;;;;;;;;;;;15.56;96.65;97963.48;1724212;83;20089;-79
2021/08/24 02:12:48;;;;;;;;;;;;;;;15.57;96.02;97960.19;1724272;83;20424;-75
2021/08/24 02:15:16;;;;;;;;;;;;;;;15.55;96.49;97961.84;1724074;83;20092;-79
2021/08/24 02:17:42;;;;;;;;;;;;;;;15.51;96.71;97959.51;1724458;82;20156;-74
2021/08/24 02:20:14;;;;;;;;;;;;;;;15.53;96.09;97958.06;1723733;83;21043;-74
2021/08/24 02:22:40;;;;;;;;;;;;;;;15.51;96.24;97964.97;1724266;82;20124;-79
2021/08/24 02:25:13;;;;;;;;;;;;;;;15.56;97.05;97964.05;1724176;82;20263;-74
2021/08/24 02:27:41;;;;;;;;;;;;;;;15.57;96.09;97962.92;1722973;82;20328;-79
2021/08/24 02:30:08;;;;;;;;;;;;;;;15.57;94.77;97965.66;1728572;82;20137;-79
2021/08/24 02:32:36;;;;;;;;;;;;;;;15.50;94.84;97964.73;1724196;83;21098;-79
2021/08/24 02:35:27;;;;;;;;;;;;;;;15.50;95.33;97964.16;1723961;83;20171;-75
2021/08/24 02:37:57;;;;;;;;;;;;;;;15.55;95.17;97961.04;1724252;83;20160;-75
2021/08/24 02:40:26;;;;;;;;;;;;;;;15.51;94.68;97963.05;1723418;83;20203;-74
2021/08/24 02:42:58;;;;;;;;;;;;;;;15.55;94.96;97957.75;1724323;82;20428;-79
2021/08/24 02:45:28;;;;;;;;;;;;;;;15.60;95.01;97957.63;1717378;82;21266;-74
2021/08/24 02:47:53;;;;;;;;;;;;;;;15.64;94.70;97960.59;1723976;82;20148;-75
2021/08/24 02:50:19;;;;;;;;;;;;;;;15.63;94.66;97961.12;1724275;82;20190;-75
2021/08/24 02:52:45;;;;;;;;;;;;;;;15.64;94.72;97959.22;1724343;82;20158;-74
2021/08/24 02:55:11;;;;;;;;;;;;;;;15.65;94.65;97954.80;1724479;82;20163;-74
2021/08/24 02:57:36;;;;;;;;;;;;;;;15.64;94.00;97951.83;1724517;83;21013;-75
2021/08/24 03:00:04;;;;;;;;;;;;;;;15.57;94.17;97951.44;1703189;83;20121;-79
2021/08/24 03:02:30;;;;;;;;;;;;;;;15.56;94.47;97951.20;1724455;83;20144;-79
2021/08/24 03:04:56;;;;;;;;;;;;;;;15.57;94.32;97954.17;1724078;82;20178;-79
2021/08/24 03:07:26;;;;;;;;;;;;;;;15.58;95.24;97958.51;1724311;82;20739;-75
2021/08/24 03:09:52;;;;;;;;;;;;;;;15.61;94.89;97959.27;1723576;83;21172;-75
2021/08/24 03:12:30;;;;;;;;;;;;;;;15.62;96.33;97956.78;1724179;83;20143;-79
2021/08/24 03:14:59;;;;;;;;;;;;;;;15.65;95.42;97951.27;1724780;82;20152;-79
2021/08/24 03:17:31;;;;;;;;;;;;;;;15.65;94.03;97952.64;1724277;83;20821;-79
2021/08/24 03:19:56;;;;;;;;;;;;;;;15.61;94.45;97952.44;1698939;83;20403;-78
2021/08/24 03:22:22;;;;;;;;;;;;;;;15.60;94.02;97958.19;1724371;82;22018;-79
2021/08/24 03:24:48;;;;;;;;;;;;;;;15.57;94.08;97958.83;1724517;82;20714;-74
2021/08/24 03:27:13;;;;;;;;;;;;;;;15.53;94.14;97958.06;1729592;82;20193;-79
2021/08/24 03:29:39;;;;;;;;;;;;;;;15.49;94.37;97955.73;1729020;82;20663;-74
2021/08/24 03:32:06;;;;;;;;;;;;;;;15.53;94.66;97960.80;1729328;82;20146;-75
2021/08/24 03:34:31;;;;;;;;;;;;;;;15.50;94.46;97963.36;1732736;82;21815;-75
2021/08/24 03:36:57;;;;;;;;;;;;;;;15.53;94.66;97967.63;1729306;82;20174;-79
2021/08/24 03:39:23;;;;;;;;;;;;;;;15.56;94.61;97966.78;1729136;83;20174;-75
2021/08/24 03:41:49;;;;;;;;;;;;;;;15.58;94.50;97974.89;1729391;82;20138;-75
2021/08/24 03:44:14;;;;;;;;;;;;;;;15.62;94.82;97973.72;1729165;83;20163;-79
2021/08/24 03:46:40;;;;;;;;;;;;;;;15.66;94.13;97976.90;1729268;82;20930;-79
2021/08/24 03:49:06;;;;;;;;;;;;;;;15.66;94.54;97977.45;1728973;82;20265;-79
2021/08/24 03:51:32;;;;;;;;;;;;;;;15.69;94.74;97975.45;1729882;82;20177;-74
2021/08/24 03:53:58;;;;;;;;;;;;;;;15.70;94.17;97971.60;1729184;82;20178;-75
2021/08/24 03:56:23;;;;;;;;;;;;;;;15.75;94.49;97972.84;1729867;82;20202;-75
2021/08/24 03:58:49;;;;;;;;;;;;;;;15.80;94.34;97980.32;1729941;82;20559;-75
2021/08/24 04:01:16;;;;;;;;;;;;;;;15.86;94.34;97974.73;1730057;82;20728;-75
2021/08/24 04:03:42;;;;;;;;;;;;;;;15.92;94.13;97977.58;1729305;82;20133;-79
2021/08/24 04:06:08;;;;;;;;;;;;;;;15.91;94.18;97982.80;1728983;83;20180;-79
2021/08/24 04:08:33;;;;;;;;;;;;;;;15.89;96.16;97978.19;1729611;82;20182;-79
2021/08/24 04:11:02;;;;;;;;;;;;;;;15.89;96.47;97983.66;1729262;82;21142;-79
2021/08/24 04:13:27;;;;;;;;;;;;;;;15.88;97.28;97991.61;1729018;82;20480;-79
2021/08/24 04:15:53;;;;;;;;;;;;;;;15.85;96.53;97990.88;1729172;82;20257;-75
2021/08/24 04:18:19;;;;;;;;;;;;;;;15.84;96.23;97996.11;1729354;82;20628;-75
2021/08/24 04:20:45;;;;;;;;;;;;;;;15.82;96.48;97992.89;1729475;82;20142;-74
2021/08/24 04:23:13;;;;;;;;;;;;;;;15.79;96.72;98001.12;1729428;82;21095;-79
2021/08/24 04:25:38;;;;;;;;;;;;;;;15.84;95.57;97992.81;1729068;82;20424;-79
2021/08/24 04:28:04;;;;;;;;;;;;;;;15.85;95.60;97997.71;1729253;83;20647;-75
2021/08/24 04:30:30;;;;;;;;;;;;;;;15.89;95.58;97998.68;1729632;82;20613;-75
2021/08/24 04:32:56;;;;;;;;;;;;;;;15.95;95.35;98006.44;1729605;82;20746;-74
2021/08/24 04:35:21;;;;;;;;;;;;;;;15.93;94.87;98003.78;1729138;82;21136;-74
2021/08/24 04:37:47;;;;;;;;;;;;;;;15.93;94.92;98008.68;1729314;83;20221;-75
2021/08/24 04:40:13;;;;;;;;;;;;;;;15.90;94.80;98010.69;1729391;82;20268;-74
2021/08/24 04:42:39;;;;;;;;;;;;;;;15.91;94.26;98011.49;1729458;82;20605;-74
2021/08/24 04:45:05;;;;;;;;;;;;;;;15.84;94.35;98010.57;1729516;82;20258;-75
2021/08/24 04:47:31;;;;;;;;;;;;;;;15.83;94.40;98007.59;1733027;82;21793;-79
2021/08/24 04:49:56;;;;;;;;;;;;;;;15.83;94.59;98008.96;1729069;82;20178;-75
2021/08/24 04:52:22;;;;;;;;;;;;;;;15.84;94.62;98012.50;1729395;82;20190;-75
2021/08/24 04:54:48;;;;;;;;;;;;;;;15.88;94.48;98017.56;1729265;82;20158;-79
2021/08/24 04:57:13;;;;;;;;;;;;;;;15.88;94.28;98018.93;1729641;82;20190;-79
2021/08/24 04:59:39;;;;;;;;;;;;;;;15.82;94.38;98018.28;1729553;82;21644;-74
2021/08/24 05:02:05;;;;;;;;;;;;;;;15.79;94.50;98020.25;1729502;82;20742;-74
2021/08/24 05:04:30;;;;;;;;;;;;;;;15.80;94.55;98019.94;1729045;82;20170;-75
2021/08/24 05:06:56;;;;;;;;;;;;;;;15.86;94.61;98023.91;1729748;82;20642;-75
2021/08/24 05:09:22;;;;;;;;;;;;;;;15.91;94.75;98025.16;1729110;82;20222;-79
2021/08/24 05:11:48;;;;;;;;;;;;;;;15.91;94.55;98027.89;1729463;82;21963;-75
2021/08/24 05:14:13;;;;;;;;;;;;;;;15.90;94.49;98026.28;1729082;82;20179;-79
2021/08/24 05:16:40;;;;;;;;;;;;;;;15.92;94.43;98028.13;1729626;82;20170;-79
2021/08/24 05:19:06;;;;;;;;;;;;;;;15.92;94.23;98023.47;1729259;82;20435;-79
2021/08/24 05:21:34;;;;;;;;;;;;;;;15.93;94.26;98020.17;1729360;82;20147;-79
2021/08/24 05:23:59;;;;;;;;;;;;;;;15.95;94.52;98013.83;1729149;83;21179;-75
2021/08/24 05:26:25;;;;;;;;;;;;;;;16.02;94.75;98018.28;1729056;82;20172;-74
2021/08/24 05:28:51;;;;;;;;;;;;;;;16.08;95.19;98021.13;1729413;82;20169;-75
2021/08/24 05:31:17;;;;;;;;;;;;;;;16.13;94.79;98028.37;1729476;82;20150;-79
2021/08/24 05:33:42;;;;;;;;;;;;;;;16.18;94.76;98026.87;1729226;83;20174;-79
2021/08/24 05:36:10;;;;;;;;;;;;;;;16.18;95.00;98031.78;1729287;82;21146;-80
2021/08/24 05:38:36;;;;;;;;;;;;;;;16.24;94.70;98036.55;1729386;82;20111;-75
2021/08/24 05:41:03;;;;;;;;;;;;;;;16.28;94.55;98027.39;1729117;82;20186;-75
2021/08/24 05:43:28;;;;;;;;;;;;;;;16.33;94.13;98036.83;1729114;83;20447;-75
2021/08/24 05:45:56;;;;;;;;;;;;;;;16.28;93.82;98027.95;1729207;82;20265;-75
2021/08/24 05:48:22;;;;;;;;;;;;;;;16.26;94.00;98033.73;1729264;83;21278;-74
2021/08/24 05:50:47;;;;;;;;;;;;;;;16.30;93.81;98040.73;1729067;82;20207;-79
2021/08/24 05:53:13;;;;;;;;;;;;;;;16.31;94.06;98039.05;1729308;82;20182;-75
2021/08/24 05:55:39;;;;;;;;;;;;;;;16.38;94.67;98039.16;1729289;82;20218;-79
2021/08/24 05:58:04;;;;;;;;;;;;;;;16.36;95.37;98043.02;1729233;83;20154;-79
2021/08/24 06:00:30;;;;;;;;;;;;;;;16.35;94.72;98046.08;1729436;82;21091;-74
2021/08/24 06:02:56;;;;;;;;;;;;;;;16.36;93.99;98048.48;1729325;82;20201;-75
2021/08/24 06:05:21;;;;;;;;;;;;;;;16.39;94.42;98051.70;1729173;82;20178;-75
2021/08/24 06:07:47;;;;;;;;;;;;;;;16.36;94.62;98049.85;1729070;82;20148;-75
2021/08/24 06:10:13;;;;;;;;;;;;;;;16.41;94.66;98055.75;1728520;82;20159;-79
2021/08/24 06:12:39;;;;;;;;;;;;;;;16.47;94.30;98057.20;1729298;82;20961;-75
2021/08/24 06:15:05;;;;;;;;;;;;;;;16.54;94.14;98058.11;1729262;82;20190;-75
2021/08/24 06:17:31;;;;;;;;;;;;;;;16.58;93.98;98061.28;1728893;82;20136;-75
2021/08/24 06:19:56;;;;;;;;;;;;;;;16.63;93.74;98064.41;1728641;82;20151;-79
2021/08/24 06:22:22;;;;;;;;;;;;;;;16.62;93.38;98069.64;1729476;82;20187;-79
2021/08/24 06:24:48;;;;;;;;;;;;;;;16.62;93.56;98072.37;1728804;82;21007;-75
2021/08/24 06:27:14;;;;;;;;;;;;;;;16.73;93.39;98077.02;1729148;83;20209;-79
2021/08/24 06:29:39;;;;;;;;;;;;;;;16.81;93.49;98077.59;1728000;82;20186;-79
2021/08/24 06:32:06;;;;;;;;;;;;;;;16.80;92.62;98080.09;1729294;82;20151;-75
2021/08/24 06:34:34;;;;;;;;;;;;;;;16.87;92.66;98080.44;1729121;83;20183;-79
2021/08/24 06:36:59;;;;;;;;;;;;;;;16.92;92.45;98080.30;1728931;83;21041;-75
2021/08/24 06:39:25;;;;;;;;;;;;;;;16.88;91.86;98082.85;1729125;82;20239;-79
2021/08/24 06:41:51;;;;;;;;;;;;;;;16.96;91.84;98084.56;1729397;82;20195;-79
2021/08/24 06:44:17;;;;;;;;;;;;;;;17.07;91.38;98086.66;1729573;82;20727;-75
2021/08/24 06:46:43;;;;;;;;;;;;;;;17.25;91.54;98089.41;1729170;82;20246;-79
2021/08/24 06:49:08;;;;;;;;;;;;;;;17.19;89.59;98085.48;1729228;82;21153;-79
2021/08/24 06:51:35;;;;;;;;;;;;;;;17.38;90.04;98085.72;1729100;83;20189;-79
2021/08/24 06:54:02;;;;;;;;;;;;;;;17.41;89.35;98087.81;1729159;83;20443;-75
2021/08/24 06:56:28;;;;;;;;;;;;;;;17.58;89.08;98083.69;1728835;82;20136;-79
2021/08/24 06:58:54;;;;;;;;;;;;;;;17.76;89.03;98081.20;1729115;83;20165;-79
2021/08/24 07:01:23;;;;;;;;;;;;;;;17.88;88.78;98080.55;1729407;82;21095;-75
2021/08/24 07:03:48;;;;;;;;;;;;;;;17.88;88.05;98081.11;1729136;82;20133;-79
2021/08/24 07:06:14;;;;;;;;;;;;;;;17.91;86.26;98081.83;1729515;82;20242;-75
2021/08/24 07:08:40;;;;;;;;;;;;;;;17.94;86.96;98085.27;1728520;83;20254;-79
2021/08/24 07:11:07;;;;;;;;;;;;;;;17.80;86.43;98083.30;1729126;83;20663;-79
2021/08/24 07:13:33;;;;;;;;;;;;;;;17.92;86.78;98086.17;1729042;83;21127;-75
2021/08/24 07:15:59;;;;;;;;;;;;;;;17.80;85.99;98088.78;1728840;82;20443;-79
2021/08/24 07:18:26;;;;;;;;;;;;;;;17.88;85.86;98086.03;1729007;82;20140;-79
2021/08/24 07:20:52;;;;;;;;;;;;;;;18.00;85.68;98079.86;1729079;83;20167;-79
2021/08/24 07:23:18;;;;;;;;;;;;;;;18.29;86.24;98077.77;1729149;82;20167;-79
2021/08/24 07:25:43;;;;;;;;;;;;;;;18.42;85.80;98082.80;1733241;82;21080;-75
2021/08/24 07:28:12;;;;;;;;;;;;;;;18.65;85.26;98080.05;1732600;82;20193;-75
2021/08/24 07:30:39;;;;;;;;;;;;;;;18.79;83.76;98077.86;1729255;83;20128;-80
2021/08/24 07:33:04;;;;;;;;;;;;;;;18.53;81.75;98081.28;1729080;82;20149;-79
2021/08/24 07:35:30;;;;;;;;;;;;;;;18.67;83.32;98086.58;1729429;82;20154;-75
2021/08/24 07:37:56;;;;;;;;;;;;;;;18.61;82.50;98087.30;1729397;82;21134;-80
2021/08/24 07:40:22;;;;;;;;;;;;;;;18.58;83.09;98083.28;1729153;82;20955;-75
2021/08/24 07:42:48;;;;;;;;;;;;;;;18.55;82.71;98086.70;1729366;83;20198;-80
2021/08/24 07:45:13;;;;;;;;;;;;;;;18.57;83.10;98091.84;1729466;82;20186;-79
2021/08/24 07:47:39;;;;;;;;;;;;;;;18.46;83.26;98085.12;1729383;83;20178;-79
2021/08/24 07:50:05;;;;;;;;;;;;;;;18.30;82.60;98091.72;1729427;82;21695;-79
2021/08/24 07:52:31;;;;;;;;;;;;;;;17.99;83.37;98092.77;1729296;83;20172;-75
2021/08/24 07:54:57;;;;;;;;;;;;;;;18.07;83.65;98092.51;1729179;82;20284;-75
2021/08/24 07:57:22;;;;;;;;;;;;;;;17.99;83.49;98097.45;1729476;83;20662;-75
2021/08/24 07:59:48;;;;;;;;;;;;;;;17.88;83.14;98097.56;1729251;82;20690;-75
2021/08/24 08:02:15;;;;;;;;;;;;;;;17.88;83.04;98095.63;1729219;82;21992;-75
2021/08/24 08:04:40;;;;;;;;;;;;;;;18.16;81.92;98099.34;1729082;83;20182;-79
2021/08/24 08:07:06;;;;;;;;;;;;;;;18.67;80.57;98098.36;1729235;82;20158;-79
2021/08/24 08:09:32;;;;;;;;;;;;;;;18.97;78.97;98101.92;1729248;82;20190;-75
2021/08/24 08:11:57;;;;;;;;;;;;;;;19.16;79.31;98101.47;1729133;82;20202;-79
2021/08/24 08:14:23;;;;;;;;;;;;;;;19.31;77.00;98098.67;1729242;82;21942;-79
2021/08/24 08:16:49;;;;;;;;;;;;;;;19.72;78.40;98104.75;1729100;82;20171;-75
2021/08/24 08:19:15;;;;;;;;;;;;;;;19.62;75.62;98103.80;1729167;82;20262;-79
2021/08/24 08:21:40;;;;;;;;;;;;;;;19.60;74.45;98105.52;1729277;82;20188;-75
2021/08/24 08:24:06;;;;;;;;;;;;;;;19.86;77.05;98105.85;1729296;82;20178;-79
2021/08/24 08:26:32;;;;;;;;;;;;;;;19.74;74.65;98103.87;1729185;82;21151;-79
2021/08/24 08:28:58;;;;;;;;;;;;;;;19.78;74.85;98113.03;1729262;83;20177;-79
2021/08/24 08:31:24;;;;;;;;;;;;;;;19.55;74.84;98113.13;1729505;82;20285;-75
2021/08/24 08:33:50;;;;;;;;;;;;;;;19.16;76.35;98111.89;1729297;82;20632;-75
2021/08/24 08:36:16;;;;;;;;;;;;;;;18.90;77.87;98118.11;1729142;83;20411;-75
2021/08/24 08:38:41;;;;;;;;;;;;;;;18.73;78.01;98116.26;1729247;82;21185;-76
2021/08/24 08:41:26;;;;;;;;;;;;;;;18.64;78.95;98120.95;1729219;83;20281;-79
2021/08/24 08:43:59;;;;;;;;;;;;;;;18.56;79.27;98121.80;1729586;82;20162;-75
2021/08/24 08:46:41;;;;;;;;;;;;;;;18.29;79.71;98127.14;1729543;82;20465;-75
2021/08/24 08:49:10;;;;;;;;;;;;;;;18.44;79.69;98123.84;1728491;83;20160;-75
2021/08/24 08:52:10;;;;;;;;;;;;;;;18.45;80.12;98126.81;1729163;82;21141;-79
2021/08/24 08:54:57;;;;;;;;;;;;;;;18.41;80.30;98133.31;1728889;82;20157;-75
2021/08/24 08:57:27;;;;;;;;;;;;;;;18.20;81.09;98140.87;1728953;83;20168;-75
2021/08/24 08:59:59;;;;;;;;;;;;;;;17.99;81.07;98146.80;1729062;83;20181;-75
2021/08/24 09:02:48;;;;;;;;;;;;;;;17.47;80.64;98154.44;1729139;82;20152;-75
2021/08/24 09:05:15;;;;;;;;;;;;;;;17.37;81.89;98160.23;1729111;83;21011;-79
2021/08/24 09:07:47;;;;;;;;;;;;;;;16.99;84.50;98159.18;1728938;82;20132;-75
2021/08/24 09:10:26;;;;;;;;;;;;;;;16.73;86.20;98165.94;1708837;83;20463;-79
2021/08/24 09:13:18;;;;;;;;;;;;;;;16.72;86.79;98167.87;1719316;82;20160;-79
2021/08/24 09:15:47;;;;;;;;;;;;;;;16.39;90.42;98168.73;1729618;82;20144;-79
2021/08/24 09:18:16;;;;;;;;;;;;;;;16.29;90.58;98175.27;1729258;82;21991;-79
2021/08/24 09:20:44;;;;;;;;;;;;;;;16.05;90.42;98174.80;1729130;83;20424;-75
2021/08/24 09:23:12;;;;;;;;;;;;;;;15.90;90.92;98177.37;1729348;82;20164;-78
2021/08/24 09:25:47;;;;;;;;;;;;;;;15.84;91.16;98186.80;1729376;82;20144;-75
2021/08/24 09:28:25;;;;;;;;;;;;;;;15.65;90.01;98191.62;1726500;82;20231;-75
2021/08/24 09:30:51;;;;;;;;;;;;;;;15.51;89.77;98201.18;1724402;83;21114;-75
2021/08/24 09:33:16;;;;;;;;;;;;;;;15.39;90.47;98203.09;1724901;82;20258;-79
2021/08/24 09:35:45;;;;;;;;;;;;;;;15.32;90.02;98204.61;1724468;82;20257;-79
2021/08/24 09:38:19;;;;;;;;;;;;;;;15.05;91.62;98210.92;1724392;83;20148;-78
2021/08/24 09:41:03;;;;;;;;;;;;;;;15.19;91.51;98217.16;1724678;82;20163;-79
2021/08/24 09:43:31;;;;;;;;;;;;;;;15.26;90.73;98216.75;1721020;83;21189;-79
2021/08/24 09:46:13;;;;;;;;;;;;;;;15.18;91.38;98229.19;1723622;83;20145;-78
2021/08/24 09:48:51;;;;;;;;;;;;;;;15.14;91.28;98225.46;1724607;82;20451;-78
2021/08/24 09:51:39;;;;;;;;;;;;;;;15.12;91.86;98231.76;1724202;82;20145;-75
2021/08/24 09:54:08;;;;;;;;;;;;;;;15.14;91.90;98238.55;1723977;83;20140;-79
2021/08/24 09:56:37;;;;;;;;;;;;;;;14.90;92.42;98242.03;1723371;83;21765;-79
2021/08/24 09:59:02;;;;;;;;;;;;;;;14.77;92.53;98257.26;1724137;83;20170;-79
2021/08/24 10:01:46;;;;;;;;;;;;;;;14.67;90.86;98254.17;1724051;82;20191;-79
2021/08/24 10:04:12;;;;;;;;;;;;;;;14.52;91.05;98265.34;1723955;82;20128;-79
2021/08/24 10:06:41;;;;;;;;;;;;;;;14.45;91.07;98266.83;1724316;82;20162;-79
2021/08/24 10:09:19;;;;;;;;;;;;;;;14.37;90.74;98271.05;1724094;83;21145;-79
2021/08/24 10:11:45;;;;;;;;;;;;;;;14.43;91.70;98272.55;1724166;83;20386;-75
2021/08/24 10:14:22;;;;;;;;;;;;;;;14.46;91.10;98278.02;1724187;82;20154;-79
2021/08/24 10:16:50;;;;;;;;;;;;;;;14.39;91.26;98280.53;1724129;83;20160;-75
2021/08/24 10:19:24;;;;;;;;;;;;;;;14.29;91.87;98279.34;1723868;83;20133;-79
2021/08/24 10:21:53;;;;;;;;;;;;;;;14.37;91.71;98291.48;1724099;83;20608;-79
2021/08/24 10:24:35;;;;;;;;;;;;;;;14.43;91.87;98303.09;1724253;83;20188;-75
2021/08/24 10:27:07;;;;;;;;;;;;;;;14.47;92.20;98306.34;1724192;82;20183;-79
2021/08/24 10:29:35;;;;;;;;;;;;;;;14.42;92.08;98313.75;1723335;83;20176;-75
2021/08/24 10:32:04;;;;;;;;;;;;;;;14.40;92.01;98311.33;1724299;83;20200;-75
2021/08/24 10:34:38;;;;;;;;;;;;;;;14.21;91.02;98321.45;1724098;82;21107;-75
2021/08/24 10:37:13;;;;;;;;;;;;;;;14.29;90.67;98320.78;1706873;83;20411;-75
2021/08/24 10:39:38;;;;;;;;;;;;;;;14.40;91.86;98326.32;1724595;82;20148;-75
2021/08/24 10:42:20;;;;;;;;;;;;;;;14.37;91.48;98329.66;1724235;83;20167;-79
2021/08/24 10:44:55;;;;;;;;;;;;;;;14.43;91.47;98337.98;1724171;82;20164;-79
2021/08/24 10:47:30;;;;;;;;;;;;;;;14.48;91.95;98339.87;1724100;83;21719;-79
2021/08/24 10:49:58;;;;;;;;;;;;;;;14.53;91.28;98347.98;1724072;83;20137;-75
2021/08/24 10:52:40;;;;;;;;;;;;;;;14.43;90.33;98343.99;1723159;83;20149;-79
2021/08/24 10:55:09;;;;;;;;;;;;;;;14.53;91.11;98350.70;1724467;82;20168;-79
2021/08/24 10:57:39;;;;;;;;;;;;;;;14.52;91.36;98347.69;1724201;82;20140;-75
2021/08/24 11:00:26;;;;;;;;;;;;;;;14.61;91.46;98352.72;1724738;82;21165;-75
2021/08/24 11:02:59;;;;;;;;;;;;;;;14.76;91.39;98352.48;1723455;83;20159;-75
2021/08/24 11:05:49;;;;;;;;;;;;;;;14.67;89.33;98362.45;1725225;82;20148;-75
2021/08/24 11:08:35;;;;;;;;;;;;;;;14.61;90.19;98363.11;1724416;82;20124;-75
2021/08/24 11:11:07;;;;;;;;;;;;;;;14.74;90.28;98362.88;1724288;82;20164;-78
2021/08/24 11:14:01;;;;;;;;;;;;;;;14.82;89.48;98356.75;1724153;83;21209;-75
2021/08/24 11:16:38;;;;;;;;;;;;;;;14.73;90.12;98359.09;1724550;82;20136;-78
2021/08/24 11:19:13;;;;;;;;;;;;;;;14.78;90.25;98363.89;1724232;82;20408;-78
2021/08/24 11:21:50;;;;;;;;;;;;;;;14.92;89.89;98361.22;1721433;82;20403;-75
2021/08/24 11:24:25;;;;;;;;;;;;;;;14.91;90.73;98365.06;1724198;83;20149;-75
2021/08/24 11:27:24;;;;;;;;;;;;;;;14.90;89.21;98368.34;1724649;82;21195;-78
2021/08/24 11:29:51;;;;;;;;;;;;;;;14.80;89.99;98375.89;1724195;83;20097;-75
2021/08/24 11:32:24;;;;;;;;;;;;;;;14.58;89.35;98378.68;1724641;82;20168;-79
2021/08/24 11:35:09;;;;;;;;;;;;;;;14.56;89.55;98389.08;1724761;82;20411;-75
2021/08/24 11:37:59;;;;;;;;;;;;;;;14.32;89.97;98389.13;1724608;82;20427;-78
2021/08/24 11:40:29;;;;;;;;;;;;;;;14.30;90.99;98400.08;1724603;83;21099;-75
2021/08/24 11:42:56;;;;;;;;;;;;;;;14.28;91.16;98407.75;1724319;82;20133;-75
2021/08/24 11:45:38;;;;;;;;;;;;;;;14.34;91.59;98399.73;1724220;82;20534;-78
2021/08/24 11:48:06;;;;;;;;;;;;;;;14.41;90.81;98412.45;1724333;82;20431;-79
2021/08/24 11:50:36;;;;;;;;;;;;;;;14.31;92.06;98407.96;1723552;83;20479;-79
2021/08/24 11:53:04;;;;;;;;;;;;;;;14.45;91.92;98413.53;1722992;83;21053;-79
2021/08/24 11:55:36;;;;;;;;;;;;;;;14.37;90.82;98413.61;1724540;82;20419;-79
2021/08/24 11:58:09;;;;;;;;;;;;;;;14.35;91.53;98420.44;1724762;82;20137;-75
2021/08/24 12:00:34;;;;;;;;;;;;;;;14.23;90.37;98424.97;1706226;83;20148;-79
2021/08/24 12:03:08;;;;;;;;;;;;;;;14.23;91.14;98429.06;1724202;83;20147;-75
2021/08/24 12:05:43;;;;;;;;;;;;;;;14.11;90.81;98431.41;1724360;82;21196;-79
2021/08/24 12:08:24;;;;;;;;;;;;;;;14.01;91.42;98432.33;1723478;83;20132;-75
2021/08/24 12:10:54;;;;;;;;;;;;;;;14.03;92.08;98438.87;1724573;83;20140;-78
2021/08/24 12:13:25;;;;;;;;;;;;;;;13.98;91.27;98458.00;1723979;82;20156;-79
2021/08/24 12:15:52;;;;;;;;;;;;;;;13.96;91.77;98455.57;1724297;83;20175;-79
2021/08/24 12:18:21;;;;;;;;;;;;;;;13.82;90.37;98469.06;1683859;83;21096;-75
2021/08/24 12:20:57;;;;;;;;;;;;;;;13.75;91.20;98463.15;1724708;82;20148;-79
2021/08/24 12:23:41;;;;;;;;;;;;;;;13.75;90.90;98476.77;1725029;82;20419;-79
2021/08/24 12:26:30;;;;;;;;;;;;;;;13.63;91.64;98481.00;1724623;82;20160;-79
2021/08/24 12:29:27;;;;;;;;;;;;;;;13.65;91.66;98493.22;1727517;82;20142;-79
2021/08/24 12:31:56;;;;;;;;;;;;;;;13.62;91.29;98492.44;1729176;82;21062;-79
2021/08/24 12:34:39;;;;;;;;;;;;;;;13.75;90.92;98495.02;1729113;83;20550;-75
2021/08/24 12:37:06;;;;;;;;;;;;;;;13.74;91.25;98497.48;1729668;82;20408;-78
2021/08/24 12:40:05;;;;;;;;;;;;;;;13.69;90.73;98497.00;1729224;82;20160;-75
2021/08/24 12:42:32;;;;;;;;;;;;;;;13.73;90.16;98507.57;1729288;82;20424;-79
2021/08/24 12:45:02;;;;;;;;;;;;;;;13.76;90.28;98512.46;1729067;83;21162;-75
2021/08/24 12:47:35;;;;;;;;;;;;;;;13.90;90.40;98509.84;1708436;83;20149;-79
2021/08/24 12:50:10;;;;;;;;;;;;;;;14.03;90.76;98512.44;1728303;83;20192;-79
2021/08/24 12:52:41;;;;;;;;;;;;;;;14.08;89.49;98516.45;1729417;82;20672;-79
2021/08/24 12:55:34;;;;;;;;;;;;;;;14.04;89.77;98512.70;1728781;83;20419;-75
2021/08/24 12:58:23;;;;;;;;;;;;;;;14.07;89.43;98520.28;1728897;82;21295;-79
2021/08/24 13:01:12;;;;;;;;;;;;;;;14.08;89.28;98528.16;1729526;82;20424;-75
2021/08/24 13:03:39;;;;;;;;;;;;;;;14.04;88.95;98528.49;1729075;82;20220;-79